createdAt,value
2017-12-06T00:01:45.027Z,6.57
2017-12-06T00:04:11.944Z,8.02
2017-12-06T00:06:38.860Z,14.77
2017-12-06T00:09:05.772Z,12.02
2017-12-06T00:11:34.607Z,10.13
2017-12-06T00:14:01.525Z,12.88
2017-12-06T00:16:28.453Z,12.60
2017-12-06T00:18:55.424Z,6.22
2017-12-06T00:21:23.340Z,12.37
2017-12-06T00:23:51.004Z,7.70
2017-12-06T00:26:18.690Z,13.50
2017-12-06T00:28:45.600Z,9.55
2017-12-06T00:31:13.296Z,13.05
2017-12-06T00:33:40.205Z,6.50
2017-12-06T00:36:07.903Z,3.90
2017-12-06T00:38:34.812Z,13.75
2017-12-06T00:41:02.504Z,14.93
2017-12-06T00:43:29.413Z,16.25
2017-12-06T00:45:57.133Z,11.63
2017-12-06T00:48:25.086Z,5.55
2017-12-06T00:50:51.993Z,17.27
2017-12-06T00:53:19.691Z,12.63
2017-12-06T00:55:46.621Z,12.18
2017-12-06T00:58:13.534Z,14.73
2017-12-06T01:00:45.376Z,14.13
2017-12-06T01:03:12.300Z,6.65
2017-12-06T01:05:42.517Z,7.12
2017-12-06T01:08:09.470Z,14.43
2017-12-06T01:10:36.380Z,8.30
2017-12-06T01:13:03.305Z,14.18
2017-12-06T01:15:31.003Z,7.65
2017-12-06T01:17:57.917Z,7.53
2017-12-06T01:20:25.630Z,6.12
2017-12-06T01:22:52.545Z,9.02
2017-12-06T01:25:19.472Z,13.40
2017-12-06T01:27:47.141Z,9.10
2017-12-06T01:30:14.069Z,13.93
2017-12-06T01:32:42.762Z,7.57
2017-12-06T01:35:10.444Z,8.32
2017-12-06T01:37:38.317Z,8.85
2017-12-06T01:40:06.256Z,24.67
2017-12-06T01:42:33.936Z,9.15
2017-12-06T01:45:00.904Z,10.32
2017-12-06T01:47:27.813Z,8.60
2017-12-06T01:49:54.736Z,4.80
2017-12-06T01:52:22.621Z,12.93
2017-12-06T01:54:49.580Z,11.73
2017-12-06T01:57:16.504Z,8.13
2017-12-06T01:59:44.196Z,8.00
2017-12-06T02:02:11.100Z,8.45
2017-12-06T02:04:38.038Z,13.18
2017-12-06T02:07:04.951Z,4.78
2017-12-06T02:09:32.868Z,10.02
2017-12-06T02:12:00.546Z,5.05
2017-12-06T02:14:27.475Z,6.20
2017-12-06T02:16:55.154Z,12.95
2017-12-06T02:19:22.072Z,9.15
2017-12-06T02:21:49.750Z,10.45
2017-12-06T02:24:16.680Z,7.05
2017-12-06T02:26:44.361Z,2.47
2017-12-06T02:29:11.288Z,7.47
2017-12-06T02:31:38.966Z,12.75
2017-12-06T02:34:05.888Z,6.37
2017-12-06T02:36:33.560Z,4.95
2017-12-06T02:39:01.230Z,7.30
2017-12-06T02:41:40.861Z,8.18
2017-12-06T02:44:20.301Z,10.93
2017-12-06T02:46:47.969Z,5.05
2017-12-06T02:49:15.655Z,2.30
2017-12-06T02:51:42.570Z,5.85
2017-12-06T02:54:10.258Z,0.90
2017-12-06T02:56:38.069Z,6.35
2017-12-06T02:59:05.015Z,3.72
2017-12-06T03:01:31.947Z,7.70
2017-12-06T03:03:58.884Z,9.68
2017-12-06T03:06:25.815Z,11.12
2017-12-06T03:08:52.726Z,5.07
2017-12-06T03:11:19.674Z,3.97
2017-12-06T03:13:46.961Z,11.45
2017-12-06T03:16:13.871Z,9.30
2017-12-06T03:18:40.835Z,14.60
2017-12-06T03:21:07.777Z,9.07
2017-12-06T03:23:34.702Z,2.58
2017-12-06T03:26:01.617Z,7.95
2017-12-06T03:28:28.525Z,13.80
2017-12-06T03:30:55.454Z,11.02
2017-12-06T03:33:24.316Z,10.02
2017-12-06T03:35:51.236Z,21.37
2017-12-06T03:38:18.145Z,6.35
2017-12-06T03:40:45.070Z,14.98
2017-12-06T03:43:12.928Z,6.55
2017-12-06T03:45:39.852Z,22.62
2017-12-06T03:48:08.545Z,12.00
2017-12-06T03:50:36.250Z,15.25
2017-12-06T03:53:04.160Z,7.07
2017-12-06T03:55:31.887Z,8.43
2017-12-06T03:57:58.818Z,7.18
2017-12-06T04:00:25.753Z,10.07
2017-12-06T04:02:52.661Z,9.00
2017-12-06T04:05:20.360Z,4.50
2017-12-06T04:07:47.264Z,9.00
2017-12-06T04:10:14.939Z,7.45
2017-12-06T04:12:42.620Z,10.23
2017-12-06T04:15:09.545Z,10.23
2017-12-06T04:17:36.463Z,10.10
2017-12-06T04:20:03.405Z,13.38
2017-12-06T04:22:31.301Z,10.05
2017-12-06T04:25:00.180Z,12.15
2017-12-06T04:27:27.865Z,8.52
2017-12-06T04:29:54.824Z,4.28
2017-12-06T04:32:21.752Z,4.45
2017-12-06T04:34:49.577Z,12.05
2017-12-06T04:37:16.496Z,5.47
2017-12-06T04:39:45.349Z,6.30
2017-12-06T04:42:12.256Z,8.57
2017-12-06T04:44:39.188Z,16.00
2017-12-06T04:47:06.097Z,7.25
2017-12-06T04:49:33.046Z,11.52
2017-12-06T04:51:59.948Z,8.00
2017-12-06T04:54:27.689Z,6.47
2017-12-06T04:56:55.577Z,7.03
2017-12-06T04:59:22.520Z,7.90
2017-12-06T05:01:49.429Z,9.77
2017-12-06T05:04:16.344Z,7.15
2017-12-06T05:06:43.268Z,4.50
2017-12-06T05:09:10.941Z,21.37
2017-12-06T05:11:37.861Z,9.80
2017-12-06T05:14:05.544Z,10.05
2017-12-06T05:16:32.506Z,12.20
2017-12-06T05:19:00.332Z,15.30
2017-12-06T05:21:29.022Z,13.68
2017-12-06T05:23:56.717Z,12.88
2017-12-06T05:26:23.652Z,16.87
2017-12-06T05:28:52.516Z,12.18
2017-12-06T05:31:19.464Z,10.07
2017-12-06T05:33:47.170Z,21.27
2017-12-06T05:36:15.009Z,7.05
2017-12-06T05:38:41.914Z,8.25
2017-12-06T05:41:08.849Z,7.90
2017-12-06T05:43:35.784Z,18.10
2017-12-06T05:46:02.724Z,10.95
2017-12-06T05:48:29.640Z,12.57
2017-12-06T05:50:57.483Z,4.03
2017-12-06T05:53:25.159Z,11.30
2017-12-06T05:55:52.085Z,8.55
2017-12-06T05:58:20.778Z,18.30
2017-12-06T06:00:49.470Z,11.40
2017-12-06T06:03:17.148Z,13.27
2017-12-06T06:05:44.079Z,11.00
2017-12-06T06:08:10.985Z,10.45
2017-12-06T06:10:37.936Z,22.15
2017-12-06T06:13:04.884Z,12.98
2017-12-06T06:15:31.825Z,11.50
2017-12-06T06:17:58.749Z,18.35
2017-12-06T06:20:26.685Z,6.37
2017-12-06T06:22:53.611Z,22.40
2017-12-06T06:25:20.538Z,10.57
2017-12-06T06:27:48.212Z,8.70
2017-12-06T06:30:15.929Z,13.15
2017-12-06T06:32:43.852Z,12.73
2017-12-06T06:35:11.717Z,8.35
2017-12-06T06:37:39.560Z,13.80
2017-12-06T06:40:06.489Z,14.65
2017-12-06T06:42:33.408Z,16.60
2017-12-06T06:45:00.348Z,8.35
2017-12-06T06:47:27.259Z,8.48
2017-12-06T06:49:54.178Z,11.32
2017-12-06T06:52:22.052Z,13.80
2017-12-06T06:54:49.745Z,10.90
2017-12-06T06:57:16.657Z,13.82
2017-12-06T06:59:44.338Z,8.68
2017-12-06T07:02:11.261Z,9.95
2017-12-06T07:04:38.979Z,14.05
2017-12-06T07:07:05.899Z,15.80
2017-12-06T07:09:32.829Z,14.35
2017-12-06T07:12:00.581Z,6.53
2017-12-06T07:14:29.281Z,8.63
2017-12-06T07:16:56.193Z,9.20
2017-12-06T07:19:23.129Z,11.75
2017-12-06T07:21:50.045Z,10.82
2017-12-06T07:24:16.988Z,8.02
2017-12-06T07:26:43.927Z,4.45
2017-12-06T07:29:10.915Z,6.07
2017-12-06T07:31:38.821Z,12.45
2017-12-06T07:34:05.740Z,5.75
2017-12-06T07:36:33.425Z,11.45
2017-12-06T07:39:00.352Z,12.90
2017-12-06T07:41:28.033Z,18.00
2017-12-06T07:43:55.534Z,4.32
2017-12-06T07:46:22.441Z,11.02
2017-12-06T07:48:49.352Z,8.63
2017-12-06T07:51:16.281Z,9.93
2017-12-06T07:53:43.203Z,8.27
2017-12-06T07:56:10.160Z,8.27
2017-12-06T07:58:37.121Z,15.27
2017-12-06T08:01:04.036Z,5.35
2017-12-06T08:03:30.962Z,13.80
2017-12-06T08:05:57.902Z,18.15
2017-12-06T08:08:25.756Z,13.02
2017-12-06T08:10:52.676Z,8.38
2017-12-06T08:13:20.348Z,3.20
2017-12-06T08:15:48.080Z,10.80
2017-12-06T08:18:14.985Z,15.80
2017-12-06T08:20:41.899Z,9.13
2017-12-06T08:23:09.592Z,3.72
2017-12-06T08:25:36.516Z,7.75
2017-12-06T08:28:03.438Z,5.65
2017-12-06T08:30:31.433Z,10.23
2017-12-06T08:32:59.287Z,6.72
2017-12-06T08:35:26.974Z,9.05
2017-12-06T08:37:53.879Z,9.18
2017-12-06T08:40:20.809Z,13.30
2017-12-06T08:42:47.742Z,6.82
2017-12-06T08:45:14.676Z,6.75
2017-12-06T08:47:41.586Z,5.40
2017-12-06T08:50:08.529Z,12.52
2017-12-06T08:52:35.452Z,14.80
2017-12-06T08:55:03.145Z,12.25
2017-12-06T08:57:30.980Z,11.77
2017-12-06T08:59:58.974Z,14.32
2017-12-06T09:02:26.813Z,21.23
2017-12-06T09:04:56.249Z,12.02
2017-12-06T09:07:23.996Z,9.52
2017-12-06T09:09:51.871Z,14.00
2017-12-06T09:12:20.711Z,13.05
2017-12-06T09:14:47.633Z,9.95
2017-12-06T09:17:14.540Z,19.17
2017-12-06T09:19:41.491Z,13.15
2017-12-06T09:22:08.409Z,18.80
2017-12-06T09:24:35.364Z,15.35
2017-12-06T09:27:02.269Z,9.48
2017-12-06T09:29:29.228Z,21.83
2017-12-06T09:31:56.164Z,11.12
2017-12-06T09:34:24.089Z,16.02
2017-12-06T09:36:52.949Z,14.05
2017-12-06T09:39:19.893Z,10.80
2017-12-06T09:41:47.582Z,24.48
2017-12-06T09:44:15.549Z,10.85
2017-12-06T09:46:42.465Z,16.85
2017-12-06T09:49:11.164Z,13.25
2017-12-06T09:51:38.556Z,17.60
2017-12-06T09:54:05.488Z,24.75
2017-12-06T09:56:33.420Z,15.05
2017-12-06T09:59:01.118Z,10.70
2017-12-06T10:01:28.032Z,17.48
2017-12-06T10:03:55.737Z,29.55
2017-12-06T10:06:22.680Z,14.73
2017-12-06T10:08:49.582Z,27.57
2017-12-06T10:11:17.247Z,25.35
2017-12-06T10:13:44.173Z,20.25
2017-12-06T10:16:11.838Z,27.50
2017-12-06T10:18:39.522Z,26.35
2017-12-06T10:21:06.427Z,17.10
2017-12-06T10:23:33.362Z,12.20
2017-12-06T10:26:01.243Z,16.90
2017-12-06T10:28:28.142Z,19.23
2017-12-06T10:30:56.079Z,17.12
2017-12-06T10:33:23.775Z,15.75
2017-12-06T10:35:50.679Z,12.68
2017-12-06T10:38:18.351Z,22.87
2017-12-06T10:40:46.014Z,20.98
2017-12-06T10:43:14.617Z,24.33
2017-12-06T10:45:41.542Z,27.17
2017-12-06T10:48:08.454Z,27.85
2017-12-06T10:50:35.386Z,18.65
2017-12-06T10:53:02.296Z,20.35
2017-12-06T10:55:29.237Z,19.65
2017-12-06T10:57:56.160Z,28.17
2017-12-06T11:00:23.096Z,26.20
2017-12-06T11:02:50.787Z,27.83
2017-12-06T11:05:18.666Z,32.47
2017-12-06T11:07:45.615Z,40.17
2017-12-06T11:10:13.563Z,24.35
2017-12-06T11:12:40.484Z,22.17
2017-12-06T11:15:08.181Z,18.95
2017-12-06T11:17:35.092Z,21.48
2017-12-06T11:20:02.043Z,17.23
2017-12-06T11:22:28.960Z,18.77
2017-12-06T11:24:55.919Z,23.67
2017-12-06T11:27:24.412Z,17.50
2017-12-06T11:29:52.108Z,13.05
2017-12-06T11:32:19.943Z,32.92
2017-12-06T11:34:46.868Z,20.00
2017-12-06T11:37:13.782Z,12.37
2017-12-06T11:39:41.476Z,15.25
2017-12-06T11:42:08.402Z,15.07
2017-12-06T11:44:35.333Z,17.23
2017-12-06T11:47:03.016Z,17.77
2017-12-06T11:49:31.880Z,27.20
2017-12-06T11:51:59.756Z,20.62
2017-12-06T11:54:26.666Z,22.40
2017-12-06T11:56:53.589Z,20.73
2017-12-06T11:59:20.513Z,19.17
2017-12-06T12:01:47.441Z,13.98
2017-12-06T12:04:14.385Z,18.37
2017-12-06T12:06:41.313Z,14.15
2017-12-06T12:09:09.001Z,13.88
2017-12-06T12:11:39.620Z,11.40
2017-12-06T12:14:06.561Z,15.73
2017-12-06T12:16:33.496Z,18.40
2017-12-06T12:19:01.190Z,16.05
2017-12-06T12:21:28.117Z,14.32
2017-12-06T12:23:55.969Z,18.85
2017-12-06T12:26:23.834Z,17.12
2017-12-06T12:28:51.544Z,14.68
2017-12-06T12:31:18.461Z,9.23
2017-12-06T12:33:46.345Z,14.30
2017-12-06T12:36:17.257Z,16.17
2017-12-06T12:38:45.143Z,16.73
2017-12-06T12:41:12.069Z,17.77
2017-12-06T12:43:39.946Z,10.45
2017-12-06T12:46:06.869Z,15.05
2017-12-06T12:48:34.570Z,17.15
2017-12-06T12:51:01.485Z,17.92
2017-12-06T12:53:28.419Z,19.25
2017-12-06T12:55:56.105Z,14.07
2017-12-06T12:58:23.044Z,16.70
2017-12-06T13:00:50.868Z,6.53
2017-12-06T13:03:17.792Z,7.47
2017-12-06T13:05:44.712Z,15.40
2017-12-06T13:08:11.650Z,7.43
2017-12-06T13:10:39.497Z,16.48
2017-12-06T13:13:07.384Z,13.13
2017-12-06T13:15:34.311Z,11.43
2017-12-06T13:18:01.256Z,5.35
2017-12-06T13:20:29.129Z,16.70
2017-12-06T13:22:56.061Z,8.13
2017-12-06T13:25:23.744Z,10.93
2017-12-06T13:27:50.676Z,12.25
2017-12-06T13:30:17.630Z,10.95
2017-12-06T13:32:45.501Z,11.05
2017-12-06T13:35:12.434Z,9.50
2017-12-06T13:37:39.402Z,13.88
2017-12-06T13:40:06.341Z,9.40
2017-12-06T13:42:33.295Z,11.07
2017-12-06T13:45:00.204Z,9.02
2017-12-06T13:47:27.130Z,3.85
2017-12-06T13:49:54.814Z,13.13
2017-12-06T13:52:21.768Z,9.60
2017-12-06T13:54:48.678Z,9.50
2017-12-06T13:57:15.609Z,14.37
2017-12-06T13:59:43.517Z,15.50
2017-12-06T14:02:10.457Z,20.33
2017-12-06T14:04:38.300Z,10.07
2017-12-06T14:07:05.244Z,18.37
2017-12-06T14:09:32.164Z,14.40
2017-12-06T14:11:59.108Z,10.93
2017-12-06T14:14:28.065Z,16.25
2017-12-06T14:16:55.009Z,20.17
2017-12-06T14:19:21.920Z,15.05
2017-12-06T14:21:48.828Z,16.07
2017-12-06T14:24:15.753Z,18.27
2017-12-06T14:26:42.684Z,24.35
2017-12-06T14:29:09.632Z,16.80
2017-12-06T14:31:36.557Z,21.65
2017-12-06T14:34:03.497Z,23.38
2017-12-06T14:36:31.191Z,16.23
2017-12-06T14:38:58.138Z,16.30
2017-12-06T14:41:25.070Z,22.90
2017-12-06T14:43:52.082Z,16.12
2017-12-06T14:46:18.962Z,13.15
2017-12-06T14:48:45.909Z,20.08
2017-12-06T14:51:13.752Z,23.15
2017-12-06T14:53:40.688Z,23.35
2017-12-06T14:56:08.389Z,19.95
2017-12-06T14:58:35.341Z,14.02
2017-12-06T15:01:02.276Z,20.00
2017-12-06T15:03:29.212Z,21.00
2017-12-06T15:05:56.138Z,23.73
2017-12-06T15:08:23.076Z,17.60
2017-12-06T15:10:50.764Z,23.40
2017-12-06T15:13:20.821Z,16.33
2017-12-06T15:15:47.738Z,20.00
2017-12-06T15:18:14.951Z,18.58
2017-12-06T15:20:42.760Z,9.50
2017-12-06T15:23:11.612Z,18.52
2017-12-06T15:25:38.545Z,14.50
2017-12-06T15:28:05.472Z,19.23
2017-12-06T15:30:32.410Z,30.50
2017-12-06T15:32:59.365Z,20.48
2017-12-06T15:35:27.257Z,31.55
2017-12-06T15:37:54.198Z,29.10
2017-12-06T15:40:21.926Z,23.98
2017-12-06T15:42:48.845Z,32.80
2017-12-06T15:45:15.788Z,29.83
2017-12-06T15:47:42.751Z,17.85
2017-12-06T15:50:11.644Z,15.50
2017-12-06T15:52:39.525Z,13.95
2017-12-06T15:55:06.450Z,27.02
2017-12-06T15:57:33.388Z,21.20
2017-12-06T16:00:00.310Z,24.17
2017-12-06T16:02:27.245Z,15.13
2017-12-06T16:04:55.118Z,16.20
2017-12-06T16:07:34.237Z,19.42
2017-12-06T16:10:02.134Z,15.35
2017-12-06T16:12:30.320Z,25.95
2017-12-06T16:14:57.275Z,8.88
2017-12-06T16:20:03.913Z,27.48
2017-12-06T16:22:30.844Z,17.45
2017-12-06T16:24:58.526Z,25.67
2017-12-06T16:27:26.408Z,18.83
2017-12-06T16:29:54.265Z,14.90
2017-12-06T16:32:21.232Z,21.77
2017-12-06T16:35:00.854Z,20.42
2017-12-06T16:37:29.488Z,19.95
2017-12-06T16:39:56.413Z,24.25
2017-12-06T16:42:23.352Z,15.07
2017-12-06T16:44:52.188Z,14.13
2017-12-06T16:47:19.922Z,14.52
2017-12-06T16:49:46.828Z,20.02
2017-12-06T16:52:13.745Z,13.60
2017-12-06T16:54:40.681Z,14.48
2017-12-06T16:57:08.360Z,11.82
2017-12-06T16:59:36.226Z,15.82
2017-12-06T17:02:03.150Z,17.25
2017-12-06T17:04:30.841Z,13.88
2017-12-06T17:06:57.745Z,16.65
2017-12-06T17:09:25.627Z,8.48
2017-12-06T17:11:53.298Z,16.10
2017-12-06T17:14:20.247Z,13.57
2017-12-06T17:16:47.150Z,24.60
2017-12-06T17:19:14.090Z,6.07
2017-12-06T17:21:41.004Z,19.12
2017-12-06T17:24:07.939Z,13.85
2017-12-06T17:26:34.867Z,9.20
2017-12-06T17:29:13.614Z,8.95
2017-12-06T17:31:45.120Z,16.60
2017-12-06T17:34:13.755Z,20.27
2017-12-06T17:36:45.459Z,20.05
2017-12-06T17:39:13.161Z,23.20
2017-12-06T17:41:40.080Z,15.00
2017-12-06T17:44:07.037Z,17.67
2017-12-06T17:46:33.944Z,5.22
2017-12-06T17:49:00.905Z,14.70
2017-12-06T17:51:28.605Z,8.15
2017-12-06T17:53:55.559Z,21.33
2017-12-06T17:56:23.484Z,11.30
2017-12-06T17:58:51.141Z,22.15
2017-12-06T18:01:18.864Z,13.80
2017-12-06T18:03:45.796Z,13.90
2017-12-06T18:06:12.717Z,24.52
2017-12-06T18:08:39.680Z,21.55
2017-12-06T18:11:06.621Z,16.85
2017-12-06T18:13:33.653Z,12.32
2017-12-06T18:16:02.550Z,15.25
2017-12-06T18:18:29.493Z,14.07
2017-12-06T18:20:57.492Z,6.22
2017-12-06T18:23:26.383Z,10.98
2017-12-06T18:25:55.036Z,17.92
2017-12-06T18:28:21.976Z,10.35
2017-12-06T18:30:50.861Z,11.18
2017-12-06T18:33:19.746Z,12.85
2017-12-06T18:35:46.679Z,10.07
2017-12-06T18:38:14.408Z,17.35
2017-12-06T18:40:42.119Z,7.12
2017-12-06T18:43:09.068Z,9.73
2017-12-06T18:45:35.988Z,14.00
2017-12-06T18:48:03.709Z,10.48
2017-12-06T18:50:30.627Z,11.95
2017-12-06T18:52:59.512Z,6.20
2017-12-06T18:55:26.463Z,3.22
2017-12-06T18:57:55.375Z,10.98
2017-12-06T19:00:23.357Z,8.68
2017-12-06T19:02:50.590Z,9.02
2017-12-06T19:05:17.529Z,11.02
2017-12-06T19:07:44.476Z,9.73
2017-12-06T19:10:12.228Z,6.07
2017-12-06T19:12:39.180Z,7.75
2017-12-06T19:15:06.148Z,2.37
2017-12-06T19:17:34.107Z,5.32
2017-12-06T19:20:02.032Z,7.10
2017-12-06T19:22:31.616Z,7.05
2017-12-06T19:24:58.561Z,12.18
2017-12-06T19:27:26.240Z,12.65
2017-12-06T19:29:54.943Z,7.18
2017-12-06T19:32:23.818Z,7.82
2017-12-06T19:34:51.510Z,8.55
2017-12-06T19:37:18.449Z,11.38
2017-12-06T19:39:46.529Z,14.07
2017-12-06T19:42:13.629Z,4.95
2017-12-06T19:44:41.337Z,11.93
2017-12-06T19:47:09.168Z,11.10
2017-12-06T19:49:36.871Z,7.62
2017-12-06T19:52:03.805Z,14.55
2017-12-06T19:54:31.641Z,7.93
2017-12-06T19:56:59.319Z,5.40
2017-12-06T19:59:26.247Z,4.72
2017-12-06T20:01:53.953Z,5.90
2017-12-06T20:04:20.889Z,2.17
2017-12-06T20:06:48.824Z,4.25
2017-12-06T20:09:16.531Z,5.90
2017-12-06T20:11:43.445Z,7.40
2017-12-06T20:14:10.392Z,5.50
2017-12-06T20:16:37.677Z,4.53
2017-12-06T20:19:05.656Z,5.15
2017-12-06T20:21:32.601Z,3.87
2017-12-06T20:23:59.531Z,3.62
2017-12-06T20:26:26.449Z,4.55
2017-12-06T20:28:53.390Z,4.62
2017-12-06T20:31:20.360Z,1.58
2017-12-06T20:33:48.304Z,1.60
2017-12-06T20:36:15.245Z,2.22
2017-12-06T20:38:42.160Z,5.18
2017-12-06T20:41:10.061Z,3.25
2017-12-06T20:43:37.002Z,6.82
2017-12-06T20:46:03.949Z,6.28
2017-12-06T20:48:30.861Z,3.42
2017-12-06T20:50:57.788Z,6.37
2017-12-06T20:53:24.700Z,2.87
2017-12-06T20:55:51.632Z,5.70
2017-12-06T20:58:18.573Z,1.45
2017-12-06T21:00:45.525Z,5.03
2017-12-06T21:03:13.186Z,5.10
2017-12-06T21:05:40.095Z,6.60
2017-12-06T21:08:07.207Z,3.33
2017-12-06T21:10:34.482Z,1.60
2017-12-06T21:13:02.273Z,2.67
2017-12-06T21:15:29.329Z,5.50
2017-12-06T21:17:56.324Z,3.58
2017-12-06T21:20:24.162Z,1.25
2017-12-06T21:22:51.130Z,3.58
2017-12-06T21:25:18.174Z,3.35
2017-12-06T21:27:46.088Z,2.90
2017-12-06T21:30:13.958Z,2.33
2017-12-06T21:32:40.904Z,4.22
2017-12-06T21:35:08.085Z,3.55
2017-12-06T21:37:35.034Z,1.58
2017-12-06T21:40:01.970Z,1.65
2017-12-06T21:42:29.002Z,3.42
2017-12-06T21:44:55.939Z,3.55
2017-12-06T21:47:24.780Z,4.62
2017-12-06T21:49:52.617Z,2.65
2017-12-06T21:52:19.617Z,2.58
2017-12-06T21:54:48.605Z,2.42
2017-12-06T21:57:15.796Z,5.68
2017-12-06T21:59:42.817Z,3.00
2017-12-06T22:02:09.752Z,4.10
2017-12-06T22:04:36.672Z,4.15
2017-12-06T22:07:03.626Z,9.65
2017-12-06T22:09:31.537Z,2.55
2017-12-06T22:11:58.480Z,4.03
2017-12-06T22:14:26.794Z,5.60
2017-12-06T22:16:53.739Z,7.10
2017-12-06T22:19:20.680Z,4.90
2017-12-06T22:21:48.022Z,3.87
2017-12-06T22:24:14.963Z,9.65
2017-12-06T22:26:41.880Z,9.30
2017-12-06T22:29:09.791Z,6.78
2017-12-06T22:31:36.952Z,12.85
2017-12-06T22:34:03.922Z,11.10
2017-12-06T22:36:30.852Z,6.50
2017-12-06T22:38:57.773Z,10.13
2017-12-06T22:41:24.732Z,11.23
2017-12-06T22:43:51.908Z,10.20
2017-12-06T22:46:18.841Z,12.40
2017-12-06T22:48:45.814Z,11.75
2017-12-06T22:51:13.516Z,12.65
2017-12-06T22:53:40.430Z,13.38
2017-12-06T22:56:07.348Z,17.27
2017-12-06T22:58:35.025Z,7.97
2017-12-06T23:01:02.720Z,13.93
2017-12-06T23:03:29.633Z,14.00
2017-12-06T23:05:57.320Z,12.05
2017-12-06T23:08:24.234Z,16.23
2017-12-06T23:10:52.118Z,13.15
2017-12-06T23:13:19.036Z,16.70
2017-12-06T23:15:46.738Z,14.57
2017-12-06T23:18:13.647Z,13.93
2017-12-06T23:20:40.576Z,13.85
2017-12-06T23:23:08.292Z,19.10
2017-12-06T23:25:35.213Z,18.75
2017-12-06T23:28:02.914Z,23.60
2017-12-06T23:30:29.845Z,19.62
2017-12-06T23:32:56.760Z,21.00
2017-12-06T23:35:24.467Z,20.33
2017-12-06T23:37:51.376Z,22.05
2017-12-06T23:40:18.312Z,23.23
2017-12-06T23:42:46.898Z,33.08
2017-12-06T23:45:14.601Z,50.83
2017-12-06T23:47:41.514Z,27.30
2017-12-06T23:50:08.447Z,44.20
2017-12-06T23:52:36.137Z,28.58
2017-12-06T23:55:03.104Z,26.75
2017-12-06T23:57:31.937Z,27.17
